sensor_id;sensor_type;location;lat;lon;timestamp;P1;durP1;ratioP1;P2;durP2;ratioP2
8871;SDS011;4472;52.092;9.820;2023-02-27T00:01:59;7.33;;;4.67;;
8871;SDS011;4472;52.092;9.820;2023-02-27T00:04:46;9.80;;;4.70;;
8871;SDS011;4472;52.092;9.820;2023-02-27T00:07:36;7.20;;;5.00;;
8871;SDS011;4472;52.092;9.820;2023-02-27T00:10:23;8.87;;;5.30;;
8871;SDS011;4472;52.092;9.820;2023-02-27T00:13:10;12.10;;;5.70;;
8871;SDS011;4472;52.092;9.820;2023-02-27T00:15:58;8.07;;;5.30;;
8871;SDS011;4472;52.092;9.820;2023-02-27T00:18:45;8.20;;;5.50;;
8871;SDS011;4472;52.092;9.820;2023-02-27T00:21:33;11.47;;;5.33;;
8871;SDS011;4472;52.092;9.820;2023-02-27T00:24:22;9.20;;;5.60;;
8871;SDS011;4472;52.092;9.820;2023-02-27T00:27:09;7.07;;;5.10;;
8871;SDS011;4472;52.092;9.820;2023-02-27T00:29:56;9.17;;;5.90;;
8871;SDS011;4472;52.092;9.820;2023-02-27T00:32:44;8.87;;;5.60;;
8871;SDS011;4472;52.092;9.820;2023-02-27T00:35:31;9.37;;;5.27;;
8871;SDS011;4472;52.092;9.820;2023-02-27T00:38:19;6.70;;;4.73;;
8871;SDS011;4472;52.092;9.820;2023-02-27T00:41:08;7.20;;;5.10;;
8871;SDS011;4472;52.092;9.820;2023-02-27T00:43:55;6.60;;;4.90;;
8871;SDS011;4472;52.092;9.820;2023-02-27T00:46:43;5.97;;;4.70;;
8871;SDS011;4472;52.092;9.820;2023-02-27T00:49:30;7.20;;;4.73;;
8871;SDS011;4472;52.092;9.820;2023-02-27T00:52:18;5.33;;;4.00;;
8871;SDS011;4472;52.092;9.820;2023-02-27T00:55:06;6.70;;;3.97;;
8871;SDS011;4472;52.092;9.820;2023-02-27T00:57:54;8.30;;;5.03;;
8871;SDS011;4472;52.092;9.820;2023-02-27T01:00:42;7.43;;;4.50;;
8871;SDS011;4472;52.092;9.820;2023-02-27T01:03:30;6.27;;;4.30;;
8871;SDS011;4472;52.092;9.820;2023-02-27T01:06:17;5.53;;;4.50;;
8871;SDS011;4472;52.092;9.820;2023-02-27T01:09:05;10.80;;;4.50;;
8871;SDS011;4472;52.092;9.820;2023-02-27T01:11:52;8.40;;;4.40;;
8871;SDS011;4472;52.092;9.820;2023-02-27T01:14:41;8.27;;;4.27;;
8871;SDS011;4472;52.092;9.820;2023-02-27T01:17:29;4.93;;;3.97;;
8871;SDS011;4472;52.092;9.820;2023-02-27T01:20:16;7.00;;;3.90;;
8871;SDS011;4472;52.092;9.820;2023-02-27T01:23:04;5.23;;;3.87;;
8871;SDS011;4472;52.092;9.820;2023-02-27T01:25:51;8.93;;;4.13;;
8871;SDS011;4472;52.092;9.820;2023-02-27T01:28:39;5.87;;;3.73;;
8871;SDS011;4472;52.092;9.820;2023-02-27T01:31:27;8.77;;;4.73;;
8871;SDS011;4472;52.092;9.820;2023-02-27T01:34:15;5.97;;;3.60;;
8871;SDS011;4472;52.092;9.820;2023-02-27T01:37:02;5.27;;;3.70;;
8871;SDS011;4472;52.092;9.820;2023-02-27T01:39:50;7.33;;;4.37;;
8871;SDS011;4472;52.092;9.820;2023-02-27T01:42:37;5.67;;;3.83;;
8871;SDS011;4472;52.092;9.820;2023-02-27T01:45:29;5.87;;;3.83;;
8871;SDS011;4472;52.092;9.820;2023-02-27T01:48:20;8.10;;;3.50;;
8871;SDS011;4472;52.092;9.820;2023-02-27T01:51:09;4.53;;;3.87;;
8871;SDS011;4472;52.092;9.820;2023-02-27T01:53:58;5.13;;;3.37;;
8871;SDS011;4472;52.092;9.820;2023-02-27T01:56:46;4.27;;;3.20;;
8871;SDS011;4472;52.092;9.820;2023-02-27T01:59:34;4.97;;;2.97;;
8871;SDS011;4472;52.092;9.820;2023-02-27T02:02:23;3.50;;;2.83;;
8871;SDS011;4472;52.092;9.820;2023-02-27T02:05:12;4.33;;;3.23;;
8871;SDS011;4472;52.092;9.820;2023-02-27T02:08:01;3.17;;;2.80;;
8871;SDS011;4472;52.092;9.820;2023-02-27T02:10:49;3.70;;;2.63;;
8871;SDS011;4472;52.092;9.820;2023-02-27T02:13:37;3.57;;;2.43;;
8871;SDS011;4472;52.092;9.820;2023-02-27T02:16:35;5.33;;;2.70;;
8871;SDS011;4472;52.092;9.820;2023-02-27T02:19:34;6.73;;;2.93;;
8871;SDS011;4472;52.092;9.820;2023-02-27T02:28:45;4.10;;;2.90;;
8871;SDS011;4472;52.092;9.820;2023-02-27T02:31:48;3.37;;;2.80;;
8871;SDS011;4472;52.092;9.820;2023-02-27T02:34:51;2.83;;;2.50;;
8871;SDS011;4472;52.092;9.820;2023-02-27T02:37:45;5.80;;;2.90;;
8871;SDS011;4472;52.092;9.820;2023-02-27T02:40:39;3.97;;;3.17;;
8871;SDS011;4472;52.092;9.820;2023-02-27T02:43:30;3.40;;;2.60;;
8871;SDS011;4472;52.092;9.820;2023-02-27T02:46:24;4.47;;;2.63;;
8871;SDS011;4472;52.092;9.820;2023-02-27T02:49:15;5.40;;;3.07;;
8871;SDS011;4472;52.092;9.820;2023-02-27T02:52:07;2.97;;;2.60;;
8871;SDS011;4472;52.092;9.820;2023-02-27T02:54:56;9.00;;;3.13;;
8871;SDS011;4472;52.092;9.820;2023-02-27T02:57:47;5.40;;;2.63;;
8871;SDS011;4472;52.092;9.820;2023-02-27T03:00:37;7.47;;;2.60;;
8871;SDS011;4472;52.092;9.820;2023-02-27T03:03:26;3.23;;;2.50;;
8871;SDS011;4472;52.092;9.820;2023-02-27T03:06:15;6.53;;;2.67;;
8871;SDS011;4472;52.092;9.820;2023-02-27T03:09:06;5.57;;;2.70;;
8871;SDS011;4472;52.092;9.820;2023-02-27T03:11:56;3.17;;;2.70;;
8871;SDS011;4472;52.092;9.820;2023-02-27T03:14:47;3.63;;;2.60;;
8871;SDS011;4472;52.092;9.820;2023-02-27T03:17:38;3.77;;;2.53;;
8871;SDS011;4472;52.092;9.820;2023-02-27T03:20:27;2.67;;;2.30;;
8871;SDS011;4472;52.092;9.820;2023-02-27T03:23:16;5.60;;;2.83;;
8871;SDS011;4472;52.092;9.820;2023-02-27T03:26:06;2.80;;;2.43;;
8871;SDS011;4472;52.092;9.820;2023-02-27T03:28:55;3.40;;;2.30;;
8871;SDS011;4472;52.092;9.820;2023-02-27T03:31:47;5.83;;;3.53;;
8871;SDS011;4472;52.092;9.820;2023-02-27T03:34:36;4.90;;;2.53;;
8871;SDS011;4472;52.092;9.820;2023-02-27T03:37:26;2.93;;;2.53;;
8871;SDS011;4472;52.092;9.820;2023-02-27T03:40:18;6.13;;;2.43;;
8871;SDS011;4472;52.092;9.820;2023-02-27T03:43:11;4.57;;;2.40;;
8871;SDS011;4472;52.092;9.820;2023-02-27T03:46:05;4.80;;;2.93;;
8871;SDS011;4472;52.092;9.820;2023-02-27T03:48:55;3.00;;;2.70;;
8871;SDS011;4472;52.092;9.820;2023-02-27T03:51:43;3.73;;;2.33;;
8871;SDS011;4472;52.092;9.820;2023-02-27T03:54:31;2.37;;;2.17;;
8871;SDS011;4472;52.092;9.820;2023-02-27T03:57:20;3.57;;;2.60;;
8871;SDS011;4472;52.092;9.820;2023-02-27T04:00:09;4.20;;;2.80;;
8871;SDS011;4472;52.092;9.820;2023-02-27T04:02:58;3.97;;;2.33;;
8871;SDS011;4472;52.092;9.820;2023-02-27T04:05:47;3.57;;;2.63;;
8871;SDS011;4472;52.092;9.820;2023-02-27T04:08:38;4.00;;;2.50;;
8871;SDS011;4472;52.092;9.820;2023-02-27T04:11:33;4.77;;;2.60;;
8871;SDS011;4472;52.092;9.820;2023-02-27T04:14:32;4.90;;;2.80;;
8871;SDS011;4472;52.092;9.820;2023-02-27T04:17:22;8.27;;;2.90;;
8871;SDS011;4472;52.092;9.820;2023-02-27T04:20:30;5.03;;;2.73;;
8871;SDS011;4472;52.092;9.820;2023-02-27T04:23:25;4.20;;;2.63;;
8871;SDS011;4472;52.092;9.820;2023-02-27T04:26:16;3.07;;;2.60;;
8871;SDS011;4472;52.092;9.820;2023-02-27T04:29:07;2.87;;;2.40;;
8871;SDS011;4472;52.092;9.820;2023-02-27T04:31:58;6.47;;;3.23;;
8871;SDS011;4472;52.092;9.820;2023-02-27T04:34:47;4.40;;;2.60;;
8871;SDS011;4472;52.092;9.820;2023-02-27T04:37:40;4.97;;;3.13;;
8871;SDS011;4472;52.092;9.820;2023-02-27T04:40:31;6.50;;;3.63;;
8871;SDS011;4472;52.092;9.820;2023-02-27T04:43:21;3.90;;;3.30;;
8871;SDS011;4472;52.092;9.820;2023-02-27T04:46:11;6.33;;;3.03;;
8871;SDS011;4472;52.092;9.820;2023-02-27T04:48:59;8.60;;;3.33;;
8871;SDS011;4472;52.092;9.820;2023-02-27T04:51:49;8.20;;;4.07;;
8871;SDS011;4472;52.092;9.820;2023-02-27T04:54:38;5.53;;;3.10;;
8871;SDS011;4472;52.092;9.820;2023-02-27T04:57:30;6.83;;;3.30;;
8871;SDS011;4472;52.092;9.820;2023-02-27T05:00:19;5.10;;;3.33;;
8871;SDS011;4472;52.092;9.820;2023-02-27T05:03:08;5.87;;;3.77;;
8871;SDS011;4472;52.092;9.820;2023-02-27T05:05:57;5.00;;;3.23;;
8871;SDS011;4472;52.092;9.820;2023-02-27T05:08:48;6.10;;;3.63;;
8871;SDS011;4472;52.092;9.820;2023-02-27T05:11:40;10.87;;;3.70;;
8871;SDS011;4472;52.092;9.820;2023-02-27T05:14:31;7.47;;;3.10;;
8871;SDS011;4472;52.092;9.820;2023-02-27T05:17:20;5.90;;;3.30;;
8871;SDS011;4472;52.092;9.820;2023-02-27T05:20:09;4.43;;;3.37;;
8871;SDS011;4472;52.092;9.820;2023-02-27T05:22:57;6.33;;;4.10;;
8871;SDS011;4472;52.092;9.820;2023-02-27T05:25:47;7.57;;;4.50;;
8871;SDS011;4472;52.092;9.820;2023-02-27T05:28:40;7.67;;;4.20;;
8871;SDS011;4472;52.092;9.820;2023-02-27T05:31:34;6.83;;;4.10;;
8871;SDS011;4472;52.092;9.820;2023-02-27T05:34:24;5.87;;;4.00;;
8871;SDS011;4472;52.092;9.820;2023-02-27T05:37:13;8.33;;;4.63;;
8871;SDS011;4472;52.092;9.820;2023-02-27T05:40:03;7.37;;;4.30;;
8871;SDS011;4472;52.092;9.820;2023-02-27T05:42:55;4.60;;;3.93;;
8871;SDS011;4472;52.092;9.820;2023-02-27T05:45:45;8.33;;;4.13;;
8871;SDS011;4472;52.092;9.820;2023-02-27T05:48:35;7.97;;;4.03;;
8871;SDS011;4472;52.092;9.820;2023-02-27T05:51:25;8.80;;;4.53;;
8871;SDS011;4472;52.092;9.820;2023-02-27T05:54:15;5.43;;;4.23;;
8871;SDS011;4472;52.092;9.820;2023-02-27T05:57:06;5.83;;;3.80;;
8871;SDS011;4472;52.092;9.820;2023-02-27T05:59:56;7.57;;;3.87;;
8871;SDS011;4472;52.092;9.820;2023-02-27T06:02:47;6.87;;;4.30;;
8871;SDS011;4472;52.092;9.820;2023-02-27T06:05:36;8.63;;;4.50;;
8871;SDS011;4472;52.092;9.820;2023-02-27T06:08:25;6.37;;;3.97;;
8871;SDS011;4472;52.092;9.820;2023-02-27T06:11:13;7.37;;;3.70;;
8871;SDS011;4472;52.092;9.820;2023-02-27T06:14:02;6.90;;;4.40;;
8871;SDS011;4472;52.092;9.820;2023-02-27T06:16:49;8.43;;;4.20;;
8871;SDS011;4472;52.092;9.820;2023-02-27T06:19:37;6.83;;;4.10;;
8871;SDS011;4472;52.092;9.820;2023-02-27T06:22:25;10.97;;;7.00;;
8871;SDS011;4472;52.092;9.820;2023-02-27T06:25:13;7.17;;;6.47;;
8871;SDS011;4472;52.092;9.820;2023-02-27T06:28:00;8.80;;;6.67;;
8871;SDS011;4472;52.092;9.820;2023-02-27T06:30:51;10.37;;;5.47;;
8871;SDS011;4472;52.092;9.820;2023-02-27T06:33:38;6.17;;;4.53;;
8871;SDS011;4472;52.092;9.820;2023-02-27T06:36:25;7.83;;;4.60;;
8871;SDS011;4472;52.092;9.820;2023-02-27T06:39:15;7.63;;;4.77;;
8871;SDS011;4472;52.092;9.820;2023-02-27T06:42:02;8.97;;;4.77;;
8871;SDS011;4472;52.092;9.820;2023-02-27T06:44:49;14.03;;;7.03;;
8871;SDS011;4472;52.092;9.820;2023-02-27T06:47:37;21.90;;;10.93;;
8871;SDS011;4472;52.092;9.820;2023-02-27T06:50:24;24.33;;;11.37;;
8871;SDS011;4472;52.092;9.820;2023-02-27T06:53:12;19.67;;;10.63;;
8871;SDS011;4472;52.092;9.820;2023-02-27T06:56:00;12.00;;;6.97;;
8871;SDS011;4472;52.092;9.820;2023-02-27T06:58:47;10.77;;;6.90;;
8871;SDS011;4472;52.092;9.820;2023-02-27T07:01:34;7.83;;;6.23;;
8871;SDS011;4472;52.092;9.820;2023-02-27T07:04:22;14.20;;;6.07;;
8871;SDS011;4472;52.092;9.820;2023-02-27T07:07:09;12.27;;;6.60;;
8871;SDS011;4472;52.092;9.820;2023-02-27T07:09:56;10.63;;;6.90;;
8871;SDS011;4472;52.092;9.820;2023-02-27T07:12:45;91.33;;;31.03;;
8871;SDS011;4472;52.092;9.820;2023-02-27T07:15:32;100.20;;;35.80;;
8871;SDS011;4472;52.092;9.820;2023-02-27T07:18:19;105.73;;;40.70;;
8871;SDS011;4472;52.092;9.820;2023-02-27T07:21:06;105.60;;;37.63;;
8871;SDS011;4472;52.092;9.820;2023-02-27T07:23:53;68.20;;;25.67;;
8871;SDS011;4472;52.092;9.820;2023-02-27T07:26:40;86.43;;;32.87;;
8871;SDS011;4472;52.092;9.820;2023-02-27T07:29:29;115.00;;;42.83;;
8871;SDS011;4472;52.092;9.820;2023-02-27T07:32:16;29.45;;;14.60;;
8871;SDS011;4472;52.092;9.820;2023-02-27T07:35:03;455.00;;;158.30;;
8871;SDS011;4472;52.092;9.820;2023-02-27T07:37:51;365.60;;;121.80;;
8871;SDS011;4472;52.092;9.820;2023-02-27T07:40:38;173.67;;;57.40;;
8871;SDS011;4472;52.092;9.820;2023-02-27T07:43:26;116.53;;;41.37;;
8871;SDS011;4472;52.092;9.820;2023-02-27T07:46:14;37.10;;;16.87;;
8871;SDS011;4472;52.092;9.820;2023-02-27T07:49:02;24.07;;;12.80;;
8871;SDS011;4472;52.092;9.820;2023-02-27T07:51:49;27.70;;;13.80;;
8871;SDS011;4472;52.092;9.820;2023-02-27T07:54:36;24.30;;;12.97;;
8871;SDS011;4472;52.092;9.820;2023-02-27T07:57:23;18.57;;;11.80;;
8871;SDS011;4472;52.092;9.820;2023-02-27T08:00:11;19.30;;;10.87;;
8871;SDS011;4472;52.092;9.820;2023-02-27T08:03:00;19.27;;;10.23;;
8871;SDS011;4472;52.092;9.820;2023-02-27T08:05:47;15.97;;;9.70;;
8871;SDS011;4472;52.092;9.820;2023-02-27T08:08:34;15.53;;;10.17;;
8871;SDS011;4472;52.092;9.820;2023-02-27T08:11:22;19.97;;;10.17;;
8871;SDS011;4472;52.092;9.820;2023-02-27T08:14:09;14.60;;;8.53;;
8871;SDS011;4472;52.092;9.820;2023-02-27T08:16:56;12.70;;;8.10;;
8871;SDS011;4472;52.092;9.820;2023-02-27T08:19:45;15.47;;;7.90;;
8871;SDS011;4472;52.092;9.820;2023-02-27T08:22:33;10.27;;;6.93;;
8871;SDS011;4472;52.092;9.820;2023-02-27T08:25:20;10.37;;;6.87;;
8871;SDS011;4472;52.092;9.820;2023-02-27T08:28:07;10.60;;;6.60;;
8871;SDS011;4472;52.092;9.820;2023-02-27T08:30:54;7.40;;;5.87;;
8871;SDS011;4472;52.092;9.820;2023-02-27T08:33:42;14.03;;;6.67;;
8871;SDS011;4472;52.092;9.820;2023-02-27T08:36:30;11.73;;;7.50;;
8871;SDS011;4472;52.092;9.820;2023-02-27T08:39:17;14.17;;;7.43;;
8871;SDS011;4472;52.092;9.820;2023-02-27T08:42:05;11.47;;;8.37;;
8871;SDS011;4472;52.092;9.820;2023-02-27T08:44:52;9.40;;;6.57;;
8871;SDS011;4472;52.092;9.820;2023-02-27T08:47:40;10.90;;;5.80;;
8871;SDS011;4472;52.092;9.820;2023-02-27T08:50:29;29.17;;;12.97;;
8871;SDS011;4472;52.092;9.820;2023-02-27T08:53:18;19.03;;;10.77;;
8871;SDS011;4472;52.092;9.820;2023-02-27T08:56:05;8.10;;;5.80;;
8871;SDS011;4472;52.092;9.820;2023-02-27T08:58:53;8.23;;;5.30;;
8871;SDS011;4472;52.092;9.820;2023-02-27T09:01:41;11.77;;;5.57;;
8871;SDS011;4472;52.092;9.820;2023-02-27T09:04:28;8.67;;;5.80;;
8871;SDS011;4472;52.092;9.820;2023-02-27T09:07:15;10.00;;;5.70;;
8871;SDS011;4472;52.092;9.820;2023-02-27T09:10:04;12.17;;;6.37;;
8871;SDS011;4472;52.092;9.820;2023-02-27T09:12:52;8.20;;;5.13;;
8871;SDS011;4472;52.092;9.820;2023-02-27T09:15:39;9.70;;;5.50;;
8871;SDS011;4472;52.092;9.820;2023-02-27T09:18:26;9.27;;;5.80;;
8871;SDS011;4472;52.092;9.820;2023-02-27T09:21:14;9.00;;;5.83;;
8871;SDS011;4472;52.092;9.820;2023-02-27T09:24:01;11.23;;;5.73;;
8871;SDS011;4472;52.092;9.820;2023-02-27T09:26:50;12.20;;;5.63;;
8871;SDS011;4472;52.092;9.820;2023-02-27T09:29:37;8.50;;;5.70;;
8871;SDS011;4472;52.092;9.820;2023-02-27T09:32:24;11.33;;;5.47;;
8871;SDS011;4472;52.092;9.820;2023-02-27T09:35:12;10.07;;;6.00;;
8871;SDS011;4472;52.092;9.820;2023-02-27T09:38:00;6.73;;;5.70;;
8871;SDS011;4472;52.092;9.820;2023-02-27T09:40:48;14.80;;;5.97;;
8871;SDS011;4472;52.092;9.820;2023-02-27T09:43:42;12.67;;;6.20;;
8871;SDS011;4472;52.092;9.820;2023-02-27T09:46:31;11.47;;;5.50;;
8871;SDS011;4472;52.092;9.820;2023-02-27T09:49:18;8.57;;;5.50;;
8871;SDS011;4472;52.092;9.820;2023-02-27T09:52:10;9.80;;;6.23;;
8871;SDS011;4472;52.092;9.820;2023-02-27T09:54:59;9.97;;;6.30;;
8871;SDS011;4472;52.092;9.820;2023-02-27T09:57:48;9.97;;;5.90;;
8871;SDS011;4472;52.092;9.820;2023-02-27T10:00:47;14.37;;;5.80;;
8871;SDS011;4472;52.092;9.820;2023-02-27T10:03:41;9.30;;;5.47;;
8871;SDS011;4472;52.092;9.820;2023-02-27T10:06:45;17.53;;;5.87;;
8871;SDS011;4472;52.092;9.820;2023-02-27T10:09:37;8.03;;;5.60;;
8871;SDS011;4472;52.092;9.820;2023-02-27T10:12:41;12.40;;;5.40;;
8871;SDS011;4472;52.092;9.820;2023-02-27T10:15:39;9.40;;;5.33;;
8871;SDS011;4472;52.092;9.820;2023-02-27T10:18:30;6.83;;;4.60;;
8871;SDS011;4472;52.092;9.820;2023-02-27T10:21:21;10.70;;;4.63;;
8871;SDS011;4472;52.092;9.820;2023-02-27T10:24:16;8.23;;;3.40;;
8871;SDS011;4472;52.092;9.820;2023-02-27T10:27:13;6.47;;;2.80;;
8871;SDS011;4472;52.092;9.820;2023-02-27T10:30:13;6.60;;;3.60;;
8871;SDS011;4472;52.092;9.820;2023-02-27T10:33:07;6.63;;;2.70;;
8871;SDS011;4472;52.092;9.820;2023-02-27T10:36:00;5.70;;;2.40;;
8871;SDS011;4472;52.092;9.820;2023-02-27T10:38:49;4.20;;;2.23;;
8871;SDS011;4472;52.092;9.820;2023-02-27T10:41:39;7.43;;;2.77;;
8871;SDS011;4472;52.092;9.820;2023-02-27T10:44:27;5.63;;;2.50;;
8871;SDS011;4472;52.092;9.820;2023-02-27T10:47:16;3.50;;;2.10;;
8871;SDS011;4472;52.092;9.820;2023-02-27T10:50:03;4.50;;;1.97;;
8871;SDS011;4472;52.092;9.820;2023-02-27T10:53:17;3.20;;;2.00;;
8871;SDS011;4472;52.092;9.820;2023-02-27T10:56:07;3.77;;;2.27;;
8871;SDS011;4472;52.092;9.820;2023-02-27T10:59:02;7.93;;;2.80;;
8871;SDS011;4472;52.092;9.820;2023-02-27T11:01:51;4.90;;;2.37;;
8871;SDS011;4472;52.092;9.820;2023-02-27T11:04:41;7.03;;;2.53;;
8871;SDS011;4472;52.092;9.820;2023-02-27T11:07:38;5.73;;;2.97;;
8871;SDS011;4472;52.092;9.820;2023-02-27T11:10:26;6.27;;;3.30;;
8871;SDS011;4472;52.092;9.820;2023-02-27T11:13:17;7.37;;;3.07;;
8871;SDS011;4472;52.092;9.820;2023-02-27T11:16:07;6.80;;;3.50;;
8871;SDS011;4472;52.092;9.820;2023-02-27T11:18:57;9.00;;;3.50;;
8871;SDS011;4472;52.092;9.820;2023-02-27T11:21:50;6.10;;;3.10;;
8871;SDS011;4472;52.092;9.820;2023-02-27T11:24:46;3.90;;;2.13;;
8871;SDS011;4472;52.092;9.820;2023-02-27T11:27:35;4.33;;;1.70;;
8871;SDS011;4472;52.092;9.820;2023-02-27T11:30:23;4.53;;;1.93;;
8871;SDS011;4472;52.092;9.820;2023-02-27T11:33:16;4.90;;;2.17;;
8871;SDS011;4472;52.092;9.820;2023-02-27T11:36:05;5.47;;;2.07;;
8871;SDS011;4472;52.092;9.820;2023-02-27T11:38:54;5.43;;;2.23;;
8871;SDS011;4472;52.092;9.820;2023-02-27T11:41:42;3.03;;;2.13;;
8871;SDS011;4472;52.092;9.820;2023-02-27T11:44:31;6.40;;;2.50;;
8871;SDS011;4472;52.092;9.820;2023-02-27T11:47:20;3.90;;;2.50;;
8871;SDS011;4472;52.092;9.820;2023-02-27T11:53:26;4.07;;;2.70;;
8871;SDS011;4472;52.092;9.820;2023-02-27T11:56:29;5.60;;;2.63;;
8871;SDS011;4472;52.092;9.820;2023-02-27T11:59:24;3.53;;;2.17;;
8871;SDS011;4472;52.092;9.820;2023-02-27T12:02:21;5.93;;;2.10;;
8871;SDS011;4472;52.092;9.820;2023-02-27T12:05:16;7.47;;;3.27;;
8871;SDS011;4472;52.092;9.820;2023-02-27T12:08:06;3.00;;;2.10;;
8871;SDS011;4472;52.092;9.820;2023-02-27T12:11:02;5.30;;;2.83;;
8871;SDS011;4472;52.092;9.820;2023-02-27T12:13:53;7.67;;;3.00;;
8871;SDS011;4472;52.092;9.820;2023-02-27T12:16:44;2.50;;;2.20;;
8871;SDS011;4472;52.092;9.820;2023-02-27T12:19:39;5.17;;;2.67;;
8871;SDS011;4472;52.092;9.820;2023-02-27T12:22:30;5.00;;;2.37;;
8871;SDS011;4472;52.092;9.820;2023-02-27T12:25:28;5.40;;;2.00;;
8871;SDS011;4472;52.092;9.820;2023-02-27T12:28:26;2.97;;;1.90;;
8871;SDS011;4472;52.092;9.820;2023-02-27T12:31:30;6.53;;;2.80;;
8871;SDS011;4472;52.092;9.820;2023-02-27T12:34:27;4.77;;;2.43;;
8871;SDS011;4472;52.092;9.820;2023-02-27T12:37:25;4.17;;;2.23;;
8871;SDS011;4472;52.092;9.820;2023-02-27T12:40:15;6.13;;;2.77;;
8871;SDS011;4472;52.092;9.820;2023-02-27T12:43:10;6.90;;;3.83;;
8871;SDS011;4472;52.092;9.820;2023-02-27T12:46:26;4.13;;;2.50;;
8871;SDS011;4472;52.092;9.820;2023-02-27T12:49:24;7.30;;;3.20;;
8871;SDS011;4472;52.092;9.820;2023-02-27T12:52:17;10.27;;;7.47;;
8871;SDS011;4472;52.092;9.820;2023-02-27T12:55:17;5.23;;;3.00;;
8871;SDS011;4472;52.092;9.820;2023-02-27T12:58:14;5.03;;;3.20;;
8871;SDS011;4472;52.092;9.820;2023-02-27T13:01:12;6.10;;;2.90;;
8871;SDS011;4472;52.092;9.820;2023-02-27T13:04:11;4.83;;;2.60;;
8871;SDS011;4472;52.092;9.820;2023-02-27T13:07:07;6.83;;;2.23;;
8871;SDS011;4472;52.092;9.820;2023-02-27T13:10:02;4.00;;;2.50;;
8871;SDS011;4472;52.092;9.820;2023-02-27T13:12:58;5.67;;;2.67;;
8871;SDS011;4472;52.092;9.820;2023-02-27T13:15:50;4.90;;;2.63;;
8871;SDS011;4472;52.092;9.820;2023-02-27T13:18:41;3.60;;;2.57;;
8871;SDS011;4472;52.092;9.820;2023-02-27T13:21:34;5.07;;;2.80;;
8871;SDS011;4472;52.092;9.820;2023-02-27T13:24:25;5.40;;;2.60;;
8871;SDS011;4472;52.092;9.820;2023-02-27T13:27:15;4.27;;;2.50;;
8871;SDS011;4472;52.092;9.820;2023-02-27T13:30:12;5.80;;;2.43;;
8871;SDS011;4472;52.092;9.820;2023-02-27T13:33:11;5.20;;;3.93;;
8871;SDS011;4472;52.092;9.820;2023-02-27T13:36:08;8.20;;;4.17;;
8871;SDS011;4472;52.092;9.820;2023-02-27T13:39:02;8.83;;;3.80;;
8871;SDS011;4472;52.092;9.820;2023-02-27T13:41:49;9.30;;;4.50;;
8871;SDS011;4472;52.092;9.820;2023-02-27T13:44:39;8.37;;;3.30;;
8871;SDS011;4472;52.092;9.820;2023-02-27T13:47:37;8.73;;;3.80;;
8871;SDS011;4472;52.092;9.820;2023-02-27T13:50:49;13.43;;;6.43;;
8871;SDS011;4472;52.092;9.820;2023-02-27T13:53:37;5.73;;;3.50;;
8871;SDS011;4472;52.092;9.820;2023-02-27T13:56:24;2.53;;;2.33;;
8871;SDS011;4472;52.092;9.820;2023-02-27T13:59:16;5.40;;;3.00;;
8871;SDS011;4472;52.092;9.820;2023-02-27T14:02:20;9.23;;;3.57;;
8871;SDS011;4472;52.092;9.820;2023-02-27T14:05:24;3.77;;;3.03;;
8871;SDS011;4472;52.092;9.820;2023-02-27T14:08:20;8.70;;;6.83;;
8871;SDS011;4472;52.092;9.820;2023-02-27T14:11:14;6.10;;;3.03;;
8871;SDS011;4472;52.092;9.820;2023-02-27T14:14:06;3.63;;;2.60;;
8871;SDS011;4472;52.092;9.820;2023-02-27T14:16:55;4.83;;;2.67;;
8871;SDS011;4472;52.092;9.820;2023-02-27T14:19:47;6.07;;;3.50;;
8871;SDS011;4472;52.092;9.820;2023-02-27T14:26:04;6.67;;;3.40;;
8871;SDS011;4472;52.092;9.820;2023-02-27T14:28:59;4.03;;;2.60;;
8871;SDS011;4472;52.092;9.820;2023-02-27T14:31:47;3.77;;;2.77;;
8871;SDS011;4472;52.092;9.820;2023-02-27T14:34:35;5.73;;;2.70;;
8871;SDS011;4472;52.092;9.820;2023-02-27T14:37:25;4.70;;;2.50;;
8871;SDS011;4472;52.092;9.820;2023-02-27T14:43:09;4.50;;;2.80;;
8871;SDS011;4472;52.092;9.820;2023-02-27T14:49:16;4.53;;;2.50;;
8871;SDS011;4472;52.092;9.820;2023-02-27T14:52:11;5.77;;;2.53;;
8871;SDS011;4472;52.092;9.820;2023-02-27T14:55:17;4.13;;;2.30;;
8871;SDS011;4472;52.092;9.820;2023-02-27T14:58:14;5.10;;;2.80;;
8871;SDS011;4472;52.092;9.820;2023-02-27T15:01:03;6.57;;;2.80;;
8871;SDS011;4472;52.092;9.820;2023-02-27T15:03:53;3.17;;;2.10;;
8871;SDS011;4472;52.092;9.820;2023-02-27T15:06:44;5.03;;;2.93;;
8871;SDS011;4472;52.092;9.820;2023-02-27T15:09:34;3.30;;;2.00;;
8871;SDS011;4472;52.092;9.820;2023-02-27T15:12:28;7.27;;;2.37;;
8871;SDS011;4472;52.092;9.820;2023-02-27T15:15:17;3.60;;;2.40;;
8871;SDS011;4472;52.092;9.820;2023-02-27T15:18:10;4.47;;;2.40;;
8871;SDS011;4472;52.092;9.820;2023-02-27T15:20:59;10.83;;;3.03;;
8871;SDS011;4472;52.092;9.820;2023-02-27T15:23:52;4.27;;;2.30;;
8871;SDS011;4472;52.092;9.820;2023-02-27T15:26:39;3.70;;;2.23;;
8871;SDS011;4472;52.092;9.820;2023-02-27T15:29:31;5.83;;;3.87;;
8871;SDS011;4472;52.092;9.820;2023-02-27T15:32:24;4.13;;;2.40;;
8871;SDS011;4472;52.092;9.820;2023-02-27T15:35:14;4.33;;;2.20;;
8871;SDS011;4472;52.092;9.820;2023-02-27T15:38:04;3.00;;;2.80;;
8871;SDS011;4472;52.092;9.820;2023-02-27T15:40:52;2.63;;;2.20;;
8871;SDS011;4472;52.092;9.820;2023-02-27T15:43:39;3.30;;;2.10;;
8871;SDS011;4472;52.092;9.820;2023-02-27T15:46:28;4.30;;;2.40;;
8871;SDS011;4472;52.092;9.820;2023-02-27T15:49:16;3.20;;;2.17;;
8871;SDS011;4472;52.092;9.820;2023-02-27T15:52:11;5.27;;;2.27;;
8871;SDS011;4472;52.092;9.820;2023-02-27T15:55:03;6.67;;;3.20;;
8871;SDS011;4472;52.092;9.820;2023-02-27T15:57:55;5.00;;;2.50;;
8871;SDS011;4472;52.092;9.820;2023-02-27T16:00:42;5.50;;;2.57;;
8871;SDS011;4472;52.092;9.820;2023-02-27T16:03:32;5.93;;;2.33;;
8871;SDS011;4472;52.092;9.820;2023-02-27T16:06:24;3.33;;;2.70;;
8871;SDS011;4472;52.092;9.820;2023-02-27T16:09:18;6.97;;;3.73;;
8871;SDS011;4472;52.092;9.820;2023-02-27T16:12:10;8.20;;;4.20;;
8871;SDS011;4472;52.092;9.820;2023-02-27T16:15:18;4.23;;;2.87;;
8871;SDS011;4472;52.092;9.820;2023-02-27T16:18:22;9.77;;;6.13;;
8871;SDS011;4472;52.092;9.820;2023-02-27T16:21:16;11.17;;;4.10;;
8871;SDS011;4472;52.092;9.820;2023-02-27T16:24:17;7.00;;;3.27;;
8871;SDS011;4472;52.092;9.820;2023-02-27T16:27:05;3.53;;;2.10;;
8871;SDS011;4472;52.092;9.820;2023-02-27T16:30:00;4.20;;;2.40;;
8871;SDS011;4472;52.092;9.820;2023-02-27T16:32:57;3.60;;;2.30;;
8871;SDS011;4472;52.092;9.820;2023-02-27T16:35:46;5.77;;;2.60;;
8871;SDS011;4472;52.092;9.820;2023-02-27T16:38:36;9.03;;;3.87;;
8871;SDS011;4472;52.092;9.820;2023-02-27T16:41:23;6.43;;;3.60;;
8871;SDS011;4472;52.092;9.820;2023-02-27T16:44:10;3.77;;;2.50;;
8871;SDS011;4472;52.092;9.820;2023-02-27T16:46:58;3.57;;;2.20;;
8871;SDS011;4472;52.092;9.820;2023-02-27T16:49:46;4.00;;;1.90;;
8871;SDS011;4472;52.092;9.820;2023-02-27T16:52:33;3.30;;;1.97;;
8871;SDS011;4472;52.092;9.820;2023-02-27T16:55:22;2.50;;;2.30;;
8871;SDS011;4472;52.092;9.820;2023-02-27T16:58:10;2.63;;;1.90;;
8871;SDS011;4472;52.092;9.820;2023-02-27T17:00:59;2.20;;;2.00;;
8871;SDS011;4472;52.092;9.820;2023-02-27T17:03:47;5.53;;;2.30;;
8871;SDS011;4472;52.092;9.820;2023-02-27T17:06:34;3.83;;;2.20;;
8871;SDS011;4472;52.092;9.820;2023-02-27T17:09:21;2.93;;;2.00;;
8871;SDS011;4472;52.092;9.820;2023-02-27T17:12:09;3.07;;;2.50;;
8871;SDS011;4472;52.092;9.820;2023-02-27T17:14:57;2.20;;;2.00;;
8871;SDS011;4472;52.092;9.820;2023-02-27T17:17:44;2.30;;;2.00;;
8871;SDS011;4472;52.092;9.820;2023-02-27T17:20:31;2.40;;;2.00;;
8871;SDS011;4472;52.092;9.820;2023-02-27T17:23:18;4.90;;;2.00;;
8871;SDS011;4472;52.092;9.820;2023-02-27T17:26:05;3.83;;;2.50;;
8871;SDS011;4472;52.092;9.820;2023-02-27T17:28:54;5.43;;;3.27;;
8871;SDS011;4472;52.092;9.820;2023-02-27T17:31:42;3.30;;;2.00;;
8871;SDS011;4472;52.092;9.820;2023-02-27T17:34:30;7.63;;;5.40;;
8871;SDS011;4472;52.092;9.820;2023-02-27T17:37:17;8.83;;;7.30;;
8871;SDS011;4472;52.092;9.820;2023-02-27T17:40:05;12.97;;;9.67;;
8871;SDS011;4472;52.092;9.820;2023-02-27T17:42:53;11.27;;;6.23;;
8871;SDS011;4472;52.092;9.820;2023-02-27T17:45:41;6.80;;;4.20;;
8871;SDS011;4472;52.092;9.820;2023-02-27T17:48:28;4.97;;;2.87;;
8871;SDS011;4472;52.092;9.820;2023-02-27T17:51:16;11.93;;;10.53;;
8871;SDS011;4472;52.092;9.820;2023-02-27T17:54:04;2.80;;;2.50;;
8871;SDS011;4472;52.092;9.820;2023-02-27T17:56:52;3.97;;;2.80;;